Airfield :
LOGIN :

Register | Disclaimer

   EN    FR    IT 

 










Legend :    VFR   Marginal VFR   IFR   Intensive IFR   Very Intensive IFR
Visi :
Ceiling :
>= 8 km
>= 3000ft
5 to 8 km
1000 to 3000 ft
1500m to 5 km
500 to 1000 ft
800 to 1500m
200 to 500 ft
< 800m
< 200 ft
Symbols :   Thunderstorms  Fog  Heavy snow  Heavy precipitations  Wind > 20 kt
SIGMETs :     Misc.  Thunderstorms  Icing  Turbulence  Mountain Waves  Volcanic Ashes






- Airport Elevation : 219 ft
- IATA code : DNR


LFRD - Dinard

CURRENT METAR :
  • 161400Z AUTO 32009KT 290V350 9999 SCT013 BKN038 19/16 Q1023 NOSIG

EXPIRED METARs :
  • 161330Z AUTO 30010KT 9999 BKN013 OVC039 19/16 Q1023 BECMG BKN030
  • 161300Z AUTO 30008KT 9999 OVC010 19/16 Q1023 BECMG BKN030
  • 161230Z AUTO 31010KT 9999 BKN008 OVC012 18/16 Q1023 BECMG BKN030
  • 161200Z AUTO 30010KT 9999 OVC008 17/16 Q1023 BECMG BKN030
  • 161130Z AUTO 31009KT 9999 OVC007 17/16 Q1023 BECMG BKN030

TAF AMD TAF LFRD
Valid from the 16 at 13:00 until the 17 at 12:00 UTC


161321Z 1613/1712 32010KT 9999 BKN010 BKN030
BECMG 1613/1615 BKN030
BECMG 1623/1701 BKN005
TEMPO 1701/1707 3000 BR BKN003
PROB40
TEMPO 1702/1706 0500 FG VV///
BECMG 1708/1710 BKN010
ATIS : +33 2 99 16 81 50



MET'MAP, your aeronautical weather chart ! - Copyright ORBIFLY December 2007 - Disclaimer

ORBIFLY MET'MAP TEAM :

Programming & Development : Alexandra Zaïnal
Concept & original design : Baudouin d'Aumeries
Assistance for programming : Marc-Olivier Méhu
Technical & hardware support : Manuel Goepfert

Contact : metmap@orbifly.com




SOURCES & CREDITS :

   NOAA